Time;durP1;ratioP1;P1;durP2;ratioP2;P2;SDS_P1;SDS_P2;PMS_P1;PMS_P2;Temp;Humidity;BMP_temperature;BMP_pressure;BME280_temperature;BME280_humidity;BME280_pressure;Samples;Min_cycle;Max_cycle;Signal;HPM_P1;HPM_P2
2023/11/28 00:01:31;;;;;;;12.20;4.80;;;6.60;99.90;;;;;;6219205;28;20058;-84
2023/11/28 00:04:33;;;;;;;7.97;4.32;;;6.50;99.90;;;;;;6242577;28;20064;-83
2023/11/28 00:07:35;;;;;;;10.27;4.45;;;6.60;99.90;;;;;;6218629;28;20053;-84
2023/11/28 00:10:36;;;;;;;7.70;4.20;;;6.50;99.90;;;;;;6218926;28;20061;-83
2023/11/28 00:13:38;;;;;;;8.68;4.10;;;6.60;99.90;;;;;;6226259;28;20054;-83
2023/11/28 00:16:39;;;;;;;10.68;4.28;;;6.60;99.90;;;;;;6219805;28;20046;-84
2023/11/28 00:19:41;;;;;;;10.10;4.05;;;6.50;99.90;;;;;;6243602;28;20060;-84
2023/11/28 00:22:43;;;;;;;8.48;3.90;;;6.60;99.90;;;;;;6218026;28;20053;-83
2023/11/28 00:25:44;;;;;;;6.82;3.38;;;6.50;99.90;;;;;;6243452;28;20053;-83
2023/11/28 00:28:46;;;;;;;6.90;3.60;;;6.50;99.90;;;;;;6229489;28;20097;-84
2023/11/28 00:31:48;;;;;;;7.53;3.30;;;6.50;99.90;;;;;;6208502;28;20069;-84
2023/11/28 00:34:50;;;;;;;7.35;3.67;;;6.50;99.90;;;;;;6235496;28;20525;-82
2023/11/28 00:37:51;;;;;;;8.05;3.22;;;6.50;99.90;;;;;;6219074;28;20057;-83
2023/11/28 00:40:53;;;;;;;8.13;3.40;;;6.50;99.90;;;;;;6206410;28;20494;-84
2023/11/28 00:43:55;;;;;;;7.22;3.50;;;6.50;99.90;;;;;;6225643;28;20061;-84
2023/11/28 00:46:57;;;;;;;7.22;3.05;;;6.50;99.90;;;;;;6217832;28;20523;-83
2023/11/28 00:49:59;;;;;;;7.03;3.20;;;6.40;99.90;;;;;;6214739;28;20056;-83
2023/11/28 00:53:01;;;;;;;8.40;2.80;;;6.40;99.90;;;;;;6244059;28;20112;-84
2023/11/28 00:56:03;;;;;;;7.72;2.92;;;6.40;99.90;;;;;;6220504;28;20068;-84
2023/11/28 00:59:05;;;;;;;9.43;3.35;;;6.40;99.90;;;;;;6220450;28;20070;-83
2023/11/28 01:02:08;;;;;;;6.53;2.78;;;6.30;99.90;;;;;;6245927;28;20050;-82
2023/11/28 01:05:10;;;;;;;6.50;3.08;;;6.40;99.90;;;;;;6224159;28;20421;-83
2023/11/28 01:08:12;;;;;;;8.95;2.97;;;6.40;99.90;;;;;;6225080;28;20065;-84
2023/11/28 01:11:14;;;;;;;8.02;3.58;;;6.50;99.90;;;;;;6254475;28;20064;-84
2023/11/28 01:14:15;;;;;;;8.70;3.42;;;6.40;99.90;;;;;;6224983;28;20394;-83
2023/11/28 01:17:17;;;;;;;8.73;3.50;;;6.40;99.90;;;;;;6250793;28;20207;-83
2023/11/28 01:31:29;;;;;;;7.18;3.47;;;6.50;99.90;;;;;;6250263;28;20046;-83
2023/11/28 01:34:31;;;;;;;8.48;3.72;;;6.40;99.90;;;;;;6225314;28;20061;-83
2023/11/28 01:37:32;;;;;;;9.40;3.53;;;6.40;99.90;;;;;;6246898;28;20068;-84
2023/11/28 01:40:34;;;;;;;9.70;3.70;;;6.40;99.90;;;;;;6221099;28;20053;-83
2023/11/28 01:43:36;;;;;;;7.47;3.67;;;6.40;99.90;;;;;;6231896;28;20061;-84
2023/11/28 01:46:39;;;;;;;10.23;3.70;;;6.30;99.90;;;;;;6221028;28;20593;-84
2023/11/28 01:49:41;;;;;;;10.52;3.50;;;6.30;99.90;;;;;;6232067;28;20042;-84
2023/11/28 01:52:43;;;;;;;8.25;3.88;;;6.30;99.90;;;;;;6220150;28;20050;-82
2023/11/28 01:55:45;;;;;;;10.05;3.90;;;6.20;99.90;;;;;;6245478;28;20224;-84
2023/11/28 01:58:47;;;;;;;9.02;3.92;;;6.10;99.90;;;;;;6228480;28;20053;-84
2023/11/28 02:01:48;;;;;;;7.68;3.95;;;6.10;99.90;;;;;;6245421;28;20124;-85
2023/11/28 02:04:51;;;;;;;9.15;3.85;;;6.10;99.90;;;;;;6222399;28;20054;-84
2023/11/28 02:07:52;;;;;;;9.63;3.60;;;6.10;99.90;;;;;;6245971;28;20270;-83
2023/11/28 02:10:54;;;;;;;8.27;4.05;;;6.00;99.90;;;;;;6220532;28;20462;-84
2023/11/28 02:13:56;;;;;;;10.32;4.00;;;6.10;99.90;;;;;;6226862;28;20559;-83
2023/11/28 02:16:57;;;;;;;9.27;3.80;;;6.10;99.90;;;;;;6221386;28;20053;-83
2023/11/28 02:19:59;;;;;;;11.35;3.92;;;6.10;99.90;;;;;;6223170;28;20108;-83
2023/11/28 02:23:01;;;;;;;12.65;4.07;;;6.10;99.90;;;;;;6244684;28;20175;-84
2023/11/28 02:26:02;;;;;;;11.77;3.72;;;6.10;99.90;;;;;;6220324;28;20046;-84
2023/11/28 02:29:04;;;;;;;7.88;3.60;;;6.10;99.90;;;;;;6229779;28;20577;-83
2023/11/28 02:32:06;;;;;;;8.23;3.85;;;6.10;99.90;;;;;;6219214;28;20052;-83
2023/11/28 02:35:07;;;;;;;9.50;3.53;;;6.10;99.90;;;;;;6235471;28;20529;-84
2023/11/28 02:38:23;;;;;;;13.68;4.35;;;6.10;99.90;;;;;;6196223;28;20375;-84
2023/11/28 02:41:25;;;;;;;9.88;4.43;;;6.00;99.90;;;;;;6244306;28;20416;-84
2023/11/28 02:44:26;;;;;;;11.88;4.18;;;6.00;99.90;;;;;;6218591;28;20428;-84
2023/11/28 02:47:28;;;;;;;13.48;4.50;;;6.00;99.90;;;;;;6244733;28;20053;-84
2023/11/28 02:50:30;;;;;;;10.50;4.50;;;5.90;99.90;;;;;;6221254;28;20060;-84
2023/11/28 02:53:31;;;;;;;12.98;4.28;;;6.00;99.90;;;;;;6244630;28;20061;-83
2023/11/28 02:56:33;;;;;;;10.80;5.00;;;6.00;99.90;;;;;;6219200;28;20394;-83
2023/11/28 02:59:34;;;;;;;10.95;4.20;;;5.90;99.90;;;;;;6228882;28;20056;-84
2023/11/28 03:02:36;;;;;;;11.10;4.18;;;5.90;99.90;;;;;;6239084;28;20050;-83
2023/11/28 03:05:38;;;;;;;8.40;3.58;;;5.90;99.90;;;;;;6254576;28;20049;-83
2023/11/28 03:08:39;;;;;;;10.35;3.88;;;5.80;99.90;;;;;;6223505;28;20069;-83
2023/11/28 03:11:41;;;;;;;15.77;4.20;;;5.70;99.90;;;;;;6246905;28;20064;-83
2023/11/28 03:14:43;;;;;;;10.10;4.00;;;5.60;99.90;;;;;;6216363;28;20042;-83
2023/11/28 03:17:44;;;;;;;10.13;4.07;;;5.70;99.90;;;;;;6246646;28;20099;-83
2023/11/28 03:20:46;;;;;;;12.65;4.10;;;5.70;99.90;;;;;;6221154;28;20056;-84
2023/11/28 03:23:47;;;;;;;8.00;3.72;;;5.60;99.90;;;;;;6246014;28;20463;-83
2023/11/28 03:26:49;;;;;;;6.88;3.42;;;5.60;99.90;;;;;;6223420;28;20052;-84
2023/11/28 03:29:51;;;;;;;9.95;3.72;;;5.50;99.90;;;;;;6240685;28;20060;-83
2023/11/28 03:32:52;;;;;;;10.65;3.70;;;5.40;99.90;;;;;;6221253;28;20498;-83
2023/11/28 03:35:54;;;;;;;9.65;3.45;;;5.30;99.90;;;;;;6238808;28;20139;-83
2023/11/28 03:38:56;;;;;;;10.48;3.85;;;5.20;99.90;;;;;;6220544;28;20192;-83
2023/11/28 03:41:57;;;;;;;9.02;3.65;;;5.10;99.90;;;;;;6243598;28;20060;-83
2023/11/28 03:44:59;;;;;;;10.30;3.40;;;5.00;99.90;;;;;;6214179;28;20054;-83
2023/11/28 03:48:01;;;;;;;11.23;3.63;;;4.90;99.90;;;;;;6243342;28;20112;-83
2023/11/28 03:51:02;;;;;;;9.15;3.47;;;4.90;99.90;;;;;;6219598;28;20524;-83
2023/11/28 03:54:04;;;;;;;14.80;3.88;;;4.80;99.90;;;;;;6243443;28;20054;-83
2023/11/28 03:57:05;;;;;;;9.77;3.30;;;4.80;99.90;;;;;;6212428;28;20061;-83
2023/11/28 04:00:09;;;;;;;11.73;3.47;;;4.70;99.90;;;;;;6217553;28;20569;-83
2023/11/28 04:03:11;;;;;;;10.82;3.72;;;4.80;99.90;;;;;;6243776;28;20679;-83
2023/11/28 04:06:13;;;;;;;12.80;3.67;;;4.80;99.90;;;;;;6217421;28;20072;-83
2023/11/28 04:09:15;;;;;;;11.50;3.40;;;4.80;99.90;;;;;;6218318;28;20158;-83
2023/11/28 04:12:16;;;;;;;13.07;3.60;;;4.70;99.90;;;;;;6242330;28;20054;-80
2023/11/28 04:15:18;;;;;;;9.77;3.90;;;4.60;99.90;;;;;;6213962;28;20060;-83
2023/11/28 04:18:19;;;;;;;11.88;3.67;;;4.60;99.90;;;;;;6194735;28;20101;-83
2023/11/28 04:21:21;;;;;;;12.75;3.90;;;4.60;99.90;;;;;;6221815;28;20050;-83
2023/11/28 04:24:23;;;;;;;10.70;3.50;;;4.60;99.90;;;;;;6244087;28;20053;-83
2023/11/28 04:27:25;;;;;;;12.82;3.45;;;4.60;99.90;;;;;;6212821;28;20494;-83
2023/11/28 04:30:26;;;;;;;12.35;3.55;;;4.60;99.90;;;;;;6241707;28;20153;-82
2023/11/28 04:33:29;;;;;;;8.63;3.40;;;4.50;99.90;;;;;;6195558;28;20112;-82
2023/11/28 04:36:33;;;;;;;12.13;3.70;;;4.50;99.90;;;;;;6243601;28;20140;-83
2023/11/28 04:39:34;;;;;;;15.55;3.47;;;4.50;99.90;;;;;;6247586;28;20060;-82
2023/11/28 04:42:36;;;;;;;15.73;3.50;;;4.50;99.90;;;;;;6226822;28;20408;-83
2023/11/28 04:45:37;;;;;;;9.07;2.92;;;4.50;99.90;;;;;;6244299;28;20092;-82
2023/11/28 04:48:39;;;;;;;11.43;3.47;;;4.50;99.90;;;;;;6220567;28;20050;-82
2023/11/28 04:51:41;;;;;;;14.93;3.35;;;4.40;99.90;;;;;;6248918;28;20504;-82
2023/11/28 04:54:43;;;;;;;11.10;3.22;;;4.50;99.90;;;;;;6234320;28;20133;-82
2023/11/28 04:57:45;;;;;;;8.93;3.35;;;4.40;99.90;;;;;;6237798;28;20053;-78
2023/11/28 05:00:47;;;;;;;12.70;3.40;;;4.40;99.90;;;;;;6258659;28;20065;-83
2023/11/28 05:03:50;;;;;;;14.88;3.53;;;4.50;99.90;;;;;;6235446;28;20057;-83
2023/11/28 05:06:52;;;;;;;11.15;3.10;;;4.50;99.90;;;;;;6226580;28;20124;-82
2023/11/28 05:09:54;;;;;;;13.40;3.67;;;4.50;99.90;;;;;;6247361;28;20064;-83
2023/11/28 05:12:57;;;;;;;18.52;3.80;;;4.40;99.90;;;;;;6225158;28;20053;-82
2023/11/28 05:15:58;;;;;;;13.35;3.05;;;4.40;99.90;;;;;;6224336;28;20062;-82
2023/11/28 05:19:00;;;;;;;12.95;3.40;;;4.30;99.90;;;;;;6246261;28;20500;-82
2023/11/28 05:22:02;;;;;;;15.73;3.70;;;4.30;99.90;;;;;;6223468;28;20128;-82
2023/11/28 05:25:03;;;;;;;11.35;3.22;;;4.40;99.90;;;;;;6242811;28;20049;-82
2023/11/28 05:28:05;;;;;;;15.10;3.67;;;4.30;99.90;;;;;;6207231;28;20125;-82
2023/11/28 05:31:06;;;;;;;12.07;3.38;;;4.20;99.90;;;;;;6223013;28;20054;-83
2023/11/28 05:34:08;;;;;;;13.07;3.30;;;4.20;99.90;;;;;;6226419;28;20098;-83
2023/11/28 05:37:10;;;;;;;17.50;3.70;;;4.20;99.90;;;;;;6199185;28;20081;-83
2023/11/28 05:40:12;;;;;;;11.80;3.00;;;4.10;99.90;;;;;;6245683;28;20571;-82
2023/11/28 05:43:13;;;;;;;14.07;3.15;;;4.10;99.90;;;;;;6222142;28;20052;-83
2023/11/28 05:46:15;;;;;;;11.80;2.75;;;4.10;99.90;;;;;;6245043;28;20053;-83
2023/11/28 05:49:16;;;;;;;11.05;2.88;;;4.00;99.90;;;;;;6222338;28;20136;-83
2023/11/28 05:52:19;;;;;;;11.40;2.70;;;4.00;99.90;;;;;;6209222;28;20144;-84
2023/11/28 05:55:22;;;;;;;11.48;3.50;;;3.90;99.90;;;;;;6245615;28;20500;-83
2023/11/28 05:58:24;;;;;;;12.55;3.38;;;3.90;99.90;;;;;;6231246;28;20084;-83
2023/11/28 06:01:26;;;;;;;8.00;3.20;;;3.80;99.90;;;;;;6222051;28;20109;-83
2023/11/28 06:04:29;;;;;;;10.52;3.15;;;3.80;99.90;;;;;;6229520;28;20810;-83
2023/11/28 06:07:31;;;;;;;9.18;2.70;;;3.70;99.90;;;;;;6232510;28;20053;-84
2023/11/28 06:10:33;;;;;;;13.05;3.00;;;3.60;99.90;;;;;;6244223;28;20057;-84
2023/11/28 06:13:37;;;;;;;10.68;3.05;;;3.50;99.90;;;;;;6228340;28;20409;-84
2023/11/28 06:16:38;;;;;;;9.30;2.85;;;3.40;99.90;;;;;;6200051;28;20201;-84
2023/11/28 06:19:40;;;;;;;14.40;3.30;;;3.30;99.90;;;;;;6244943;28;20085;-83
2023/11/28 06:22:43;;;;;;;12.27;2.97;;;3.20;99.90;;;;;;6217234;28;20049;-84
2023/11/28 06:25:44;;;;;;;11.45;3.30;;;3.20;99.90;;;;;;6216622;28;20058;-86
2023/11/28 06:28:46;;;;;;;11.82;3.10;;;3.20;99.90;;;;;;6230888;28;20524;-85
2023/11/28 06:31:48;;;;;;;12.55;3.50;;;3.20;99.90;;;;;;6224553;28;20062;-87
2023/11/28 06:34:50;;;;;;;10.55;3.40;;;3.20;99.90;;;;;;6243518;28;20132;-86
2023/11/28 06:37:52;;;;;;;14.77;3.30;;;3.30;99.90;;;;;;6259420;22;20040;-92
2023/11/28 06:40:54;;;;;;;12.02;3.30;;;3.30;99.90;;;;;;6240361;28;20088;-93
2023/11/28 06:43:56;;;;;;;15.82;3.53;;;3.20;99.90;;;;;;6243300;28;20053;-91
2023/11/28 06:46:59;;;;;;;8.68;3.17;;;3.20;99.90;;;;;;6248568;28;20065;-85
2023/11/28 06:50:00;;;;;;;11.82;3.63;;;3.20;99.90;;;;;;6272115;28;20059;-89
2023/11/28 06:53:02;;;;;;;10.52;3.40;;;3.20;99.90;;;;;;6230957;28;20417;-89
2023/11/28 06:56:04;;;;;;;12.95;3.35;;;3.20;99.90;;;;;;6271342;28;20056;-89
2023/11/28 06:59:06;;;;;;;13.02;3.60;;;3.10;99.90;;;;;;6229280;28;20061;-88
2023/11/28 07:02:08;;;;;;;11.50;3.17;;;3.10;99.90;;;;;;6229976;28;20045;-89
2023/11/28 07:05:10;;;;;;;10.02;3.33;;;3.00;99.90;;;;;;6232209;28;20489;-89
2023/11/28 07:08:12;;;;;;;14.65;3.30;;;2.90;99.90;;;;;;6249703;28;20057;-89
2023/11/28 07:11:13;;;;;;;14.90;3.55;;;2.90;99.90;;;;;;6272454;28;20501;-90
2023/11/28 07:14:15;;;;;;;10.30;3.05;;;2.80;99.90;;;;;;6226274;28;20144;-89
2023/11/28 07:17:17;;;;;;;11.45;3.30;;;2.80;99.90;;;;;;6271504;28;20664;-89
2023/11/28 07:20:19;;;;;;;9.45;3.03;;;2.70;99.90;;;;;;6230592;28;20068;-89
2023/11/28 07:23:21;;;;;;;11.80;3.20;;;2.70;99.90;;;;;;6250200;28;20061;-89
2023/11/28 07:26:23;;;;;;;8.95;2.97;;;2.60;99.90;;;;;;6247588;28;20050;-89
2023/11/28 07:29:25;;;;;;;14.25;3.63;;;2.50;99.90;;;;;;6248490;28;20053;-88
2023/11/28 07:32:27;;;;;;;12.68;3.33;;;2.50;99.90;;;;;;6254689;28;20053;-89
2023/11/28 07:35:29;;;;;;;10.40;3.83;;;2.50;99.90;;;;;;6231849;28;20057;-89
2023/11/28 07:38:31;;;;;;;14.25;3.25;;;2.50;99.90;;;;;;6236789;28;20076;-89
2023/11/28 07:41:33;;;;;;;11.65;3.22;;;2.40;99.90;;;;;;6258269;28;20052;-90
2023/11/28 07:44:35;;;;;;;15.13;6.03;;;2.40;99.90;;;;;;6246319;28;20056;-84
2023/11/28 07:47:36;;;;;;;13.95;3.65;;;2.40;99.90;;;;;;6231844;28;20144;-89
2023/11/28 07:50:38;;;;;;;14.77;3.60;;;2.40;99.90;;;;;;6231714;28;20128;-90
2023/11/28 07:53:41;;;;;;;10.82;2.72;;;2.30;99.90;;;;;;6271774;28;20057;-92
2023/11/28 07:56:53;;;;;;;14.15;3.50;;;2.30;99.90;;;;;;6248761;28;20064;-89
2023/11/28 07:59:55;;;;;;;12.45;3.00;;;2.30;99.90;;;;;;6244221;22;20057;-85
2023/11/28 08:02:56;;;;;;;8.00;2.80;;;2.30;99.90;;;;;;6251702;28;20060;-82
2023/11/28 08:05:58;;;;;;;12.35;2.95;;;2.20;99.90;;;;;;6244326;28;20562;-81
2023/11/28 08:08:59;;;;;;;10.00;2.88;;;2.20;99.90;;;;;;6269735;28;20061;-80
2023/11/28 08:12:01;;;;;;;13.55;3.05;;;2.20;99.90;;;;;;6248757;28;20050;-78
2023/11/28 08:15:03;;;;;;;8.05;2.53;;;2.30;99.90;;;;;;6268301;28;20068;-79
2023/11/28 08:18:05;;;;;;;14.35;3.53;;;2.20;99.90;;;;;;6248373;28;20053;-79
2023/11/28 08:21:06;;;;;;;7.38;2.40;;;2.20;99.90;;;;;;6272724;28;20139;-78
2023/11/28 08:24:08;;;;;;;9.90;2.92;;;2.30;99.90;;;;;;6248800;28;20123;-82
2023/11/28 08:27:10;;;;;;;9.93;3.22;;;2.30;99.90;;;;;;6271971;28;20103;-81
2023/11/28 08:30:12;;;;;;;9.05;2.78;;;2.30;99.90;;;;;;6245542;28;20060;-83
2023/11/28 08:33:13;;;;;;;11.38;3.25;;;2.30;99.90;;;;;;6231389;28;20049;-85
2023/11/28 08:36:15;;;;;;;16.05;3.17;;;2.30;99.90;;;;;;6272779;28;20440;-85
2023/11/28 08:39:17;;;;;;;12.05;3.42;;;2.40;99.90;;;;;;6248319;28;20053;-83
2023/11/28 08:42:18;;;;;;;13.77;4.28;;;2.50;99.90;;;;;;6270773;28;20402;-81
2023/11/28 08:45:20;;;;;;;15.23;4.00;;;2.70;99.90;;;;;;6247668;28;20140;-82
2023/11/28 08:48:23;;;;;;;12.52;3.63;;;2.80;99.90;;;;;;6250152;28;20529;-82
2023/11/28 08:51:24;;;;;;;10.75;3.85;;;2.80;99.90;;;;;;6270190;28;20095;-82
2023/11/28 08:54:26;;;;;;;11.50;4.00;;;2.90;99.90;;;;;;6247848;28;20053;-83
2023/11/28 08:57:33;;;;;;;13.02;4.03;;;3.00;99.90;;;;;;6268298;28;20049;-83
2023/11/28 09:00:36;;;;;;;14.80;3.85;;;3.10;99.90;;;;;;6230017;28;20056;-83
2023/11/28 09:03:38;;;;;;;7.90;2.97;;;3.20;99.90;;;;;;6247744;28;20057;-82
2023/11/28 09:06:40;;;;;;;11.43;3.67;;;3.30;99.90;;;;;;6271998;28;20072;-80
2023/11/28 09:09:41;;;;;;;10.07;3.25;;;3.40;99.90;;;;;;6247248;28;20591;-82
2023/11/28 09:12:47;;;;;;;10.60;3.42;;;3.60;99.90;;;;;;6261203;28;20483;-83
2023/11/28 09:15:49;;;;;;;11.57;3.50;;;3.70;99.90;;;;;;6247926;28;20053;-88
2023/11/28 09:18:50;;;;;;;14.27;3.60;;;3.80;99.90;;;;;;6254060;28;20064;-79
2023/11/28 09:21:56;;;;;;;11.95;3.90;;;3.90;99.90;;;;;;6247466;28;20053;-87
2023/11/28 09:24:57;;;;;;;10.40;3.50;;;4.00;99.90;;;;;;6270565;28;20048;-85
2023/11/28 09:28:00;;;;;;;17.30;3.53;;;4.50;99.90;;;;;;6243679;28;20236;-89
2023/11/28 09:31:01;;;;;;;9.80;2.63;;;5.40;99.90;;;;;;6249688;28;20049;-84
2023/11/28 09:34:03;;;;;;;11.48;2.10;;;6.10;99.90;;;;;;6270483;28;20045;-82
2023/11/28 09:37:05;;;;;;;7.65;2.20;;;7.00;99.90;;;;;;6229923;28;20053;-83
2023/11/28 09:40:11;;;;;;;9.40;2.38;;;7.70;99.90;;;;;;6246398;28;20053;-83
2023/11/28 09:43:13;;;;;;;6.50;1.85;;;8.40;99.90;;;;;;6256528;28;20501;-83
2023/11/28 09:46:14;;;;;;;7.60;1.80;;;8.80;99.90;;;;;;6270023;28;20045;-84
2023/11/28 09:49:16;;;;;;;5.85;2.00;;;9.40;99.90;;;;;;6270945;28;20531;-83
2023/11/28 09:52:20;;;;;;;4.45;1.77;;;9.80;99.90;;;;;;6245846;28;20423;-83
2023/11/28 09:55:22;;;;;;;4.97;1.90;;;10.20;98.80;;;;;;6246227;28;20175;-84
2023/11/28 09:58:23;;;;;;;8.43;2.72;;;10.70;99.60;;;;;;6253299;28;20419;-82
2023/11/28 10:01:25;;;;;;;5.05;1.95;;;10.80;95.00;;;;;;6253098;28;20424;-81
2023/11/28 10:04:27;;;;;;;6.88;1.88;;;11.00;91.40;;;;;;6270450;28;20172;-82
2023/11/28 10:07:29;;;;;;;6.35;1.95;;;11.30;95.20;;;;;;6247612;28;20042;-82
2023/11/28 10:10:31;;;;;;;6.72;1.88;;;11.60;91.10;;;;;;6252336;28;20059;-82
2023/11/28 10:13:33;;;;;;;5.63;1.77;;;11.70;67.70;;;;;;6259629;28;20049;-81
2023/11/28 10:16:34;;;;;;;6.10;2.05;;;11.80;64.30;;;;;;6228569;28;20516;-82
2023/11/28 10:19:36;;;;;;;8.13;1.80;;;11.80;38.50;;;;;;6270252;28;20060;-82
2023/11/28 10:22:38;;;;;;;11.93;2.80;;;11.90;72.10;;;;;;6246975;28;20142;-82
2023/11/28 10:25:40;;;;;;;7.28;1.90;;;12.20;61.60;;;;;;6270397;28;20061;-83
2023/11/28 10:28:42;;;;;;;7.95;2.58;;;12.40;50.90;;;;;;6259172;28;20061;-83
2023/11/28 10:31:43;;;;;;;5.82;1.70;;;12.50;8.20;;;;;;6266910;28;20497;-83
2023/11/28 10:34:45;;;;;;;7.90;1.75;;;12.70;6.60;;;;;;6246910;28;20140;-83
2023/11/28 10:37:47;;;;;;;11.30;2.15;;;13.00;2.90;;;;;;6228983;28;20056;-82
2023/11/28 10:40:49;;;;;;;6.47;1.77;;;13.30;1.00;;;;;;6269169;28;20071;-84
2023/11/28 10:43:51;;;;;;;5.63;1.90;;;13.40;1.00;;;;;;6233891;28;20184;-83
2023/11/28 10:46:52;;;;;;;6.85;2.10;;;13.00;1.00;;;;;;6244301;28;20056;-84
2023/11/28 10:49:55;;;;;;;6.80;1.70;;;13.10;1.00;;;;;;6269079;28;20045;-83
2023/11/28 10:52:57;;;;;;;6.85;1.90;;;13.30;1.00;;;;;;6227210;28;20057;-84
2023/11/28 10:55:58;;;;;;;6.78;1.92;;;13.50;1.00;;;;;;6244836;28;20413;-84
2023/11/28 10:59:00;;;;;;;4.82;2.00;;;13.30;1.00;;;;;;6240910;28;20052;-86
2023/11/28 11:02:03;;;;;;;4.50;2.05;;;13.60;1.00;;;;;;6268577;28;20088;-86
2023/11/28 11:05:06;;;;;;;8.25;2.17;;;13.90;1.00;;;;;;6305004;22;20131;-89
2023/11/28 11:08:07;;;;;;;5.78;1.95;;;14.10;1.00;;;;;;6246836;28;20144;-86
2023/11/28 11:11:09;;;;;;;4.88;1.42;;;14.20;1.00;;;;;;6245473;28;20211;-86
2023/11/28 11:14:11;;;;;;;9.25;1.52;;;14.00;1.00;;;;;;6224812;28;20500;-86
2023/11/28 11:17:13;;;;;;;7.00;1.50;;;13.70;1.00;;;;;;6244295;28;20115;-86
2023/11/28 11:20:15;;;;;;;6.30;1.55;;;13.70;1.00;;;;;;6226275;28;20053;-87
2023/11/28 11:23:16;;;;;;;3.97;1.27;;;13.80;1.00;;;;;;6226722;28;20053;-86
2023/11/28 11:26:18;;;;;;;5.55;1.20;;;14.00;1.00;;;;;;6244016;28;20468;-85
2023/11/28 11:29:20;;;;;;;6.38;1.27;;;14.10;1.00;;;;;;6216280;28;20072;-86
2023/11/28 11:32:23;;;;;;;7.43;1.85;;;13.60;1.00;;;;;;6221208;28;20060;-86
2023/11/28 11:35:26;;;;;;;10.20;1.83;;;12.50;1.00;;;;;;6205586;28;20046;-89
2023/11/28 11:38:27;;;;;;;5.70;1.58;;;12.10;1.00;;;;;;6248120;28;20180;-89
2023/11/28 11:41:29;;;;;;;9.18;1.95;;;11.60;1.00;;;;;;6216940;28;20056;-87
2023/11/28 11:44:31;;;;;;;7.25;1.40;;;12.10;1.00;;;;;;6246758;28;20049;-91
2023/11/28 11:47:32;;;;;;;4.60;1.40;;;12.30;1.00;;;;;;6250372;28;20064;-86
2023/11/28 11:50:37;;;;;;;5.20;1.55;;;12.20;1.00;;;;;;6250568;28;20056;-90
2023/11/28 11:53:39;;;;;;;6.95;1.40;;;12.50;1.00;;;;;;6228664;28;20195;-89
2023/11/28 11:56:41;;;;;;;4.43;1.25;;;13.10;1.00;;;;;;6231786;28;20449;-88
2023/11/28 11:59:42;;;;;;;5.00;1.40;;;13.00;1.00;;;;;;6226443;28;20049;-87
2023/11/28 12:02:47;;;;;;;4.25;1.20;;;12.00;1.00;;;;;;6242984;28;20056;-91
2023/11/28 12:05:50;;;;;;;5.10;1.17;;;11.50;1.00;;;;;;6226214;28;20888;-87
2023/11/28 12:08:51;;;;;;;13.57;3.38;;;11.20;1.00;;;;;;6228358;28;20065;-86
2023/11/28 12:11:53;;;;;;;9.55;1.95;;;10.80;1.00;;;;;;6248588;28;20052;-91
2023/11/28 12:14:57;;;;;;;8.48;2.17;;;10.60;1.00;;;;;;6236323;28;20107;-92
2023/11/28 12:17:59;;;;;;;9.30;1.92;;;10.30;1.00;;;;;;6228939;28;20054;-90
2023/11/28 12:21:04;;;;;;;9.55;1.88;;;9.90;1.00;;;;;;6229281;28;20056;-90
2023/11/28 12:24:07;;;;;;;6.05;1.63;;;9.40;1.00;;;;;;6246646;28;20076;-91
2023/11/28 12:27:09;;;;;;;7.40;1.77;;;9.20;1.00;;;;;;6250386;28;20049;-91
2023/11/28 12:30:14;;;;;;;6.82;1.60;;;9.10;1.00;;;;;;6257747;28;20539;-92
2023/11/28 12:33:15;;;;;;;6.07;1.60;;;9.00;1.00;;;;;;6224669;28;20509;-92
2023/11/28 12:36:25;;;;;;;8.57;1.95;;;8.80;1.00;;;;;;6238863;28;20077;-92
2023/11/28 12:39:26;;;;;;;12.73;1.80;;;8.70;1.00;;;;;;6226465;28;20508;-93
2023/11/28 12:42:29;;;;;;;4.95;1.60;;;8.50;1.00;;;;;;6251219;28;20405;-91
2023/11/28 12:45:32;;;;;;;6.78;2.05;;;8.40;1.00;;;;;;6234242;28;20054;-91
2023/11/28 12:48:34;;;;;;;10.23;2.03;;;8.20;1.00;;;;;;6237961;28;20060;-92
2023/11/28 12:51:36;;;;;;;10.55;1.75;;;8.10;1.00;;;;;;6260374;28;20046;-92
2023/11/28 12:54:39;;;;;;;6.75;1.80;;;7.90;7.80;;;;;;6245763;28;20058;-91
2023/11/28 12:57:42;;;;;;;7.05;1.70;;;7.90;23.20;;;;;;6256821;28;20056;-90
2023/11/28 13:00:45;;;;;;;9.25;2.00;;;8.40;33.10;;;;;;6242062;28;20060;-88
2023/11/28 13:03:48;;;;;;;8.60;2.05;;;8.50;29.80;;;;;;6247826;28;20053;-91
2023/11/28 13:06:50;;;;;;;10.15;1.75;;;8.60;22.60;;;;;;6234073;28;20065;-92
2023/11/28 13:10:12;;;;;;;10.35;1.60;;;8.40;17.40;;;;;;6229481;28;20054;-91
2023/11/28 13:13:17;;;;;;;5.43;1.48;;;8.30;23.30;;;;;;6232523;28;20057;-91
2023/11/28 13:16:19;;;;;;;7.32;1.70;;;8.10;29.80;;;;;;6250105;28;20053;-87
2023/11/28 13:19:22;;;;;;;10.15;1.80;;;8.20;30.20;;;;;;6251226;28;20448;-91
2023/11/28 13:22:24;;;;;;;6.95;1.50;;;8.60;32.20;;;;;;6254928;28;20053;-91
2023/11/28 13:25:26;;;;;;;6.30;1.50;;;8.80;13.10;;;;;;6234136;28;20056;-89
2023/11/28 13:28:31;;;;;;;5.72;1.60;;;8.70;18.50;;;;;;6249275;28;20092;-93
2023/11/28 13:31:47;;;;;;;6.25;1.60;;;8.60;12.80;;;;;;6220153;28;20054;-93
2023/11/28 13:34:49;;;;;;;6.10;1.85;;;8.70;12.70;;;;;;6255816;28;20049;-90
2023/11/28 13:37:51;;;;;;;4.78;1.55;;;9.70;1.00;;;;;;6254035;28;20050;-93
2023/11/28 13:40:55;;;;;;;7.32;1.85;;;10.40;1.00;;;;;;6313987;23;20046;-90
2023/11/28 13:43:58;;;;;;;5.20;1.65;;;10.70;1.00;;;;;;6236040;28;20066;-93
2023/11/28 13:47:01;;;;;;;7.10;1.48;;;10.60;1.00;;;;;;6248304;28;20050;-90
2023/11/28 13:50:07;;;;;;;5.55;1.13;;;10.30;1.00;;;;;;6214663;28;20054;-86
2023/11/28 13:53:09;;;;;;;5.75;1.20;;;10.00;1.00;;;;;;6211924;28;20450;-86
2023/11/28 13:56:11;;;;;;;6.03;1.33;;;9.60;1.00;;;;;;6184428;28;20059;-86
2023/11/28 13:59:13;;;;;;;6.25;1.60;;;9.40;1.00;;;;;;6205806;28;20050;-87
2023/11/28 14:02:14;;;;;;;6.53;1.40;;;9.20;1.00;;;;;;6235077;28;20053;-87
2023/11/28 14:05:18;;;;;;;5.60;1.73;;;9.00;1.00;;;;;;6231158;28;20053;-86
2023/11/28 14:08:20;;;;;;;5.15;1.70;;;8.90;1.00;;;;;;6190657;28;20092;-83
2023/11/28 14:11:22;;;;;;;10.13;1.95;;;8.60;1.00;;;;;;6207001;28;20128;-84
2023/11/28 14:14:24;;;;;;;7.20;1.63;;;8.40;11.70;;;;;;6219611;28;20035;-95
2023/11/28 14:17:26;;;;;;;6.72;2.03;;;8.30;6.70;;;;;;6228902;28;20086;-95
2023/11/28 14:20:29;;;;;;;5.53;1.67;;;8.20;12.60;;;;;;6209232;28;20059;-94
2023/11/28 14:23:31;;;;;;;6.22;1.70;;;8.20;11.20;;;;;;6247333;28;20057;-88
2023/11/28 14:26:32;;;;;;;6.65;2.00;;;8.10;10.60;;;;;;6223597;28;20069;-92
2023/11/28 14:29:34;;;;;;;9.65;2.03;;;7.90;8.40;;;;;;6223241;28;20106;-91
2023/11/28 14:32:36;;;;;;;7.55;1.50;;;7.70;14.10;;;;;;6202268;28;20053;-90
2023/11/28 14:35:39;;;;;;;6.05;1.73;;;7.70;9.90;;;;;;6208460;28;20434;-91
2023/11/28 14:38:41;;;;;;;5.88;1.75;;;7.70;6.20;;;;;;6210746;28;20072;-91
2023/11/28 14:41:43;;;;;;;6.75;1.65;;;7.80;8.00;;;;;;6283989;28;20166;-89
2023/11/28 14:44:45;;;;;;;7.97;1.95;;;7.70;2.70;;;;;;6254823;28;20520;-86
2023/11/28 14:47:49;;;;;;;4.65;1.40;;;7.80;1.00;;;;;;6235742;28;20047;-87
2023/11/28 14:50:51;;;;;;;6.60;1.80;;;7.70;3.30;;;;;;6224673;28;20224;-90
2023/11/28 14:53:53;;;;;;;7.20;1.50;;;7.70;1.00;;;;;;6241847;28;20049;-92
2023/11/28 14:56:55;;;;;;;7.97;1.80;;;7.70;7.30;;;;;;6208775;28;20065;-90
2023/11/28 14:59:57;;;;;;;4.95;1.45;;;7.60;3.60;;;;;;6253261;28;20065;-89
2023/11/28 15:03:00;;;;;;;7.90;1.50;;;7.60;8.60;;;;;;6222504;28;20056;-84
2023/11/28 15:06:04;;;;;;;5.07;1.65;;;7.40;6.90;;;;;;6236684;28;20057;-90
2023/11/28 15:09:06;;;;;;;8.82;1.50;;;7.30;11.00;;;;;;6281044;28;20056;-90
2023/11/28 15:12:09;;;;;;;3.83;1.42;;;7.20;10.70;;;;;;6233337;28;20124;-87
2023/11/28 15:15:11;;;;;;;5.95;1.80;;;7.20;15.00;;;;;;6224370;28;20049;-89
2023/11/28 15:18:16;;;;;;;6.43;2.10;;;7.10;31.90;;;;;;6210235;28;20470;-86
2023/11/28 15:21:18;;;;;;;6.57;2.28;;;7.00;29.80;;;;;;6254596;28;20057;-87
2023/11/28 15:24:20;;;;;;;5.40;1.80;;;7.00;41.60;;;;;;6231530;28;20053;-88
2023/11/28 15:27:22;;;;;;;12.73;2.33;;;6.90;45.30;;;;;;6227446;28;20095;-81
2023/11/28 15:30:25;;;;;;;10.15;2.00;;;6.90;58.50;;;;;;6249440;28;20060;-85
2023/11/28 15:33:27;;;;;;;7.40;2.17;;;6.90;59.10;;;;;;6202919;28;20057;-84
2023/11/28 15:36:29;;;;;;;8.48;2.20;;;6.90;67.40;;;;;;6252863;28;20523;-88
2023/11/28 15:39:31;;;;;;;10.10;2.10;;;6.90;81.90;;;;;;6226240;28;20069;-87
2023/11/28 15:42:33;;;;;;;5.95;1.65;;;6.70;75.50;;;;;;6230816;28;20053;-86
2023/11/28 15:45:35;;;;;;;8.80;2.13;;;6.60;70.70;;;;;;6253674;28;20094;-86
2023/11/28 15:48:37;;;;;;;5.35;2.10;;;6.50;71.60;;;;;;6222216;28;20061;-87
2023/11/28 15:51:38;;;;;;;7.57;2.20;;;6.40;74.90;;;;;;6269871;28;20057;-86
2023/11/28 15:54:41;;;;;;;6.53;2.22;;;6.30;77.70;;;;;;6244834;28;20056;-87
2023/11/28 15:57:43;;;;;;;11.77;5.07;;;6.20;81.70;;;;;;6227249;28;20057;-85
2023/11/28 16:00:44;;;;;;;13.30;5.40;;;6.10;89.30;;;;;;6225674;28;20053;-83
2023/11/28 16:03:46;;;;;;;10.30;3.20;;;6.00;90.40;;;;;;6243295;28;20485;-83
2023/11/28 16:06:48;;;;;;;5.82;2.70;;;6.00;91.70;;;;;;6243012;28;20053;-83